sensor_id;sensor_type;location;lat;lon;timestamp;P1;durP1;ratioP1;P2;durP2;ratioP2
54454;SDS011;40364;52.270;10.546;2022-12-07T00:01:18;26.73;;;11.98;;
54454;SDS011;40364;52.270;10.546;2022-12-07T00:03:46;24.40;;;12.13;;
54454;SDS011;40364;52.270;10.546;2022-12-07T00:06:15;38.05;;;14.30;;
54454;SDS011;40364;52.270;10.546;2022-12-07T00:08:45;26.77;;;13.70;;
54454;SDS011;40364;52.270;10.546;2022-12-07T00:11:13;24.23;;;11.82;;
54454;SDS011;40364;52.270;10.546;2022-12-07T00:13:42;23.05;;;11.80;;
54454;SDS011;40364;52.270;10.546;2022-12-07T00:16:10;25.13;;;11.90;;
54454;SDS011;40364;52.270;10.546;2022-12-07T00:18:38;27.40;;;11.43;;
54454;SDS011;40364;52.270;10.546;2022-12-07T00:21:06;29.05;;;12.05;;
54454;SDS011;40364;52.270;10.546;2022-12-07T00:23:36;28.30;;;12.02;;
54454;SDS011;40364;52.270;10.546;2022-12-07T00:26:05;26.80;;;12.48;;
54454;SDS011;40364;52.270;10.546;2022-12-07T00:28:33;27.33;;;13.32;;
54454;SDS011;40364;52.270;10.546;2022-12-07T00:31:03;27.48;;;14.27;;
54454;SDS011;40364;52.270;10.546;2022-12-07T00:33:32;32.65;;;13.63;;
54454;SDS011;40364;52.270;10.546;2022-12-07T00:36:00;28.23;;;13.10;;
54454;SDS011;40364;52.270;10.546;2022-12-07T00:38:28;27.20;;;12.68;;
54454;SDS011;40364;52.270;10.546;2022-12-07T00:40:56;27.85;;;13.40;;
54454;SDS011;40364;52.270;10.546;2022-12-07T00:43:24;25.30;;;12.55;;
54454;SDS011;40364;52.270;10.546;2022-12-07T00:45:51;32.70;;;15.52;;
54454;SDS011;40364;52.270;10.546;2022-12-07T00:48:18;35.03;;;17.15;;
54454;SDS011;40364;52.270;10.546;2022-12-07T00:50:45;34.80;;;14.80;;
54454;SDS011;40364;52.270;10.546;2022-12-07T00:53:12;34.63;;;16.45;;
54454;SDS011;40364;52.270;10.546;2022-12-07T00:55:39;36.85;;;16.25;;
54454;SDS011;40364;52.270;10.546;2022-12-07T00:58:06;36.85;;;15.38;;
54454;SDS011;40364;52.270;10.546;2022-12-07T01:00:34;33.75;;;14.50;;
54454;SDS011;40364;52.270;10.546;2022-12-07T01:03:01;30.40;;;13.98;;
54454;SDS011;40364;52.270;10.546;2022-12-07T01:05:28;40.72;;;15.27;;
54454;SDS011;40364;52.270;10.546;2022-12-07T01:07:55;35.95;;;15.27;;
54454;SDS011;40364;52.270;10.546;2022-12-07T01:10:22;40.20;;;16.90;;
54454;SDS011;40364;52.270;10.546;2022-12-07T01:12:48;42.42;;;16.00;;
54454;SDS011;40364;52.270;10.546;2022-12-07T01:15:15;32.72;;;15.85;;
54454;SDS011;40364;52.270;10.546;2022-12-07T01:17:43;35.42;;;16.00;;
54454;SDS011;40364;52.270;10.546;2022-12-07T01:20:10;38.75;;;16.33;;
54454;SDS011;40364;52.270;10.546;2022-12-07T01:22:38;38.05;;;15.40;;
54454;SDS011;40364;52.270;10.546;2022-12-07T01:25:05;40.92;;;16.88;;
54454;SDS011;40364;52.270;10.546;2022-12-07T01:27:33;37.15;;;18.00;;
54454;SDS011;40364;52.270;10.546;2022-12-07T01:30:00;42.53;;;16.33;;
54454;SDS011;40364;52.270;10.546;2022-12-07T01:32:27;44.42;;;18.67;;
54454;SDS011;40364;52.270;10.546;2022-12-07T01:34:56;39.72;;;16.10;;
54454;SDS011;40364;52.270;10.546;2022-12-07T01:37:23;45.05;;;17.50;;
54454;SDS011;40364;52.270;10.546;2022-12-07T01:39:49;36.78;;;15.45;;
54454;SDS011;40364;52.270;10.546;2022-12-07T01:42:17;41.78;;;18.02;;
54454;SDS011;40364;52.270;10.546;2022-12-07T01:47:56;44.55;;;18.80;;
54454;SDS011;40364;52.270;10.546;2022-12-07T01:50:25;42.80;;;18.85;;
54454;SDS011;40364;52.270;10.546;2022-12-07T01:52:57;47.28;;;17.48;;
54454;SDS011;40364;52.270;10.546;2022-12-07T01:55:29;43.13;;;16.42;;
54454;SDS011;40364;52.270;10.546;2022-12-07T01:57:56;43.58;;;17.63;;
54454;SDS011;40364;52.270;10.546;2022-12-07T02:00:23;48.35;;;18.13;;
54454;SDS011;40364;52.270;10.546;2022-12-07T02:02:51;48.97;;;18.23;;
54454;SDS011;40364;52.270;10.546;2022-12-07T02:05:21;48.40;;;18.65;;
54454;SDS011;40364;52.270;10.546;2022-12-07T02:07:52;53.17;;;19.95;;
54454;SDS011;40364;52.270;10.546;2022-12-07T02:10:21;44.33;;;17.83;;
54454;SDS011;40364;52.270;10.546;2022-12-07T02:12:50;53.42;;;21.20;;
54454;SDS011;40364;52.270;10.546;2022-12-07T02:15:20;46.58;;;18.98;;
54454;SDS011;40364;52.270;10.546;2022-12-07T02:17:53;57.40;;;20.60;;
54454;SDS011;40364;52.270;10.546;2022-12-07T02:20:28;51.13;;;17.92;;
54454;SDS011;40364;52.270;10.546;2022-12-07T02:26:06;51.05;;;19.67;;
54454;SDS011;40364;52.270;10.546;2022-12-07T02:29:04;50.37;;;20.30;;
54454;SDS011;40364;52.270;10.546;2022-12-07T02:31:40;43.08;;;15.82;;
54454;SDS011;40364;52.270;10.546;2022-12-07T02:34:12;50.47;;;19.40;;
54454;SDS011;40364;52.270;10.546;2022-12-07T02:36:50;47.47;;;19.25;;
54454;SDS011;40364;52.270;10.546;2022-12-07T02:39:23;47.22;;;20.13;;
54454;SDS011;40364;52.270;10.546;2022-12-07T02:41:55;39.42;;;17.17;;
54454;SDS011;40364;52.270;10.546;2022-12-07T02:44:28;44.28;;;17.33;;
54454;SDS011;40364;52.270;10.546;2022-12-07T02:46:59;41.15;;;15.98;;
54454;SDS011;40364;52.270;10.546;2022-12-07T02:49:29;49.95;;;19.98;;
54454;SDS011;40364;52.270;10.546;2022-12-07T02:51:56;40.03;;;17.00;;
54454;SDS011;40364;52.270;10.546;2022-12-07T02:54:23;44.33;;;17.73;;
54454;SDS011;40364;52.270;10.546;2022-12-07T02:56:51;38.97;;;17.55;;
54454;SDS011;40364;52.270;10.546;2022-12-07T02:59:25;43.45;;;16.70;;
54454;SDS011;40364;52.270;10.546;2022-12-07T03:02:07;44.90;;;17.15;;
54454;SDS011;40364;52.270;10.546;2022-12-07T03:08:13;39.35;;;16.42;;
54454;SDS011;40364;52.270;10.546;2022-12-07T03:10:48;40.60;;;16.85;;
54454;SDS011;40364;52.270;10.546;2022-12-07T03:13:22;38.45;;;16.00;;
54454;SDS011;40364;52.270;10.546;2022-12-07T03:15:57;38.00;;;14.77;;
54454;SDS011;40364;52.270;10.546;2022-12-07T03:18:29;36.53;;;16.33;;
54454;SDS011;40364;52.270;10.546;2022-12-07T03:20:58;34.97;;;14.82;;
54454;SDS011;40364;52.270;10.546;2022-12-07T03:23:30;31.60;;;14.82;;
54454;SDS011;40364;52.270;10.546;2022-12-07T03:26:00;32.15;;;15.20;;
54454;SDS011;40364;52.270;10.546;2022-12-07T03:28:31;36.20;;;15.88;;
54454;SDS011;40364;52.270;10.546;2022-12-07T03:31:03;36.13;;;16.20;;
54454;SDS011;40364;52.270;10.546;2022-12-07T03:33:36;30.95;;;14.48;;
54454;SDS011;40364;52.270;10.546;2022-12-07T03:36:11;33.70;;;15.40;;
54454;SDS011;40364;52.270;10.546;2022-12-07T03:38:44;30.38;;;14.23;;
54454;SDS011;40364;52.270;10.546;2022-12-07T03:41:14;37.22;;;15.00;;
54454;SDS011;40364;52.270;10.546;2022-12-07T03:43:46;31.73;;;14.52;;
54454;SDS011;40364;52.270;10.546;2022-12-07T03:46:17;30.40;;;13.98;;
54454;SDS011;40364;52.270;10.546;2022-12-07T03:48:50;33.70;;;14.80;;
54454;SDS011;40364;52.270;10.546;2022-12-07T03:53:57;33.78;;;14.18;;
54454;SDS011;40364;52.270;10.546;2022-12-07T03:56:29;37.30;;;14.27;;
54454;SDS011;40364;52.270;10.546;2022-12-07T03:58:56;35.67;;;14.88;;
54454;SDS011;40364;52.270;10.546;2022-12-07T04:01:24;33.65;;;14.23;;
54454;SDS011;40364;52.270;10.546;2022-12-07T04:03:51;29.45;;;14.73;;
54454;SDS011;40364;52.270;10.546;2022-12-07T04:06:18;30.50;;;14.90;;
54454;SDS011;40364;52.270;10.546;2022-12-07T04:08:45;33.65;;;14.27;;
54454;SDS011;40364;52.270;10.546;2022-12-07T04:11:11;25.08;;;12.93;;
54454;SDS011;40364;52.270;10.546;2022-12-07T04:13:38;30.17;;;13.07;;
54454;SDS011;40364;52.270;10.546;2022-12-07T04:16:19;29.13;;;14.13;;
54454;SDS011;40364;52.270;10.546;2022-12-07T04:18:47;25.70;;;11.82;;
54454;SDS011;40364;52.270;10.546;2022-12-07T04:21:14;24.98;;;12.45;;
54454;SDS011;40364;52.270;10.546;2022-12-07T04:23:40;23.73;;;11.85;;
54454;SDS011;40364;52.270;10.546;2022-12-07T04:26:07;27.75;;;12.95;;
54454;SDS011;40364;52.270;10.546;2022-12-07T04:28:34;24.02;;;11.68;;
54454;SDS011;40364;52.270;10.546;2022-12-07T04:31:00;23.40;;;11.15;;
54454;SDS011;40364;52.270;10.546;2022-12-07T04:33:27;23.55;;;11.50;;
54454;SDS011;40364;52.270;10.546;2022-12-07T04:35:55;24.40;;;11.13;;
54454;SDS011;40364;52.270;10.546;2022-12-07T04:38:22;26.20;;;10.85;;
54454;SDS011;40364;52.270;10.546;2022-12-07T04:40:49;21.88;;;10.60;;
54454;SDS011;40364;52.270;10.546;2022-12-07T04:43:16;24.92;;;11.35;;
54454;SDS011;40364;52.270;10.546;2022-12-07T04:45:45;24.88;;;11.10;;
54454;SDS011;40364;52.270;10.546;2022-12-07T04:48:12;24.15;;;11.18;;
54454;SDS011;40364;52.270;10.546;2022-12-07T04:50:39;19.42;;;10.20;;
54454;SDS011;40364;52.270;10.546;2022-12-07T04:53:08;21.27;;;10.98;;
54454;SDS011;40364;52.270;10.546;2022-12-07T04:55:34;19.77;;;10.63;;
54454;SDS011;40364;52.270;10.546;2022-12-07T04:58:02;19.80;;;10.15;;
54454;SDS011;40364;52.270;10.546;2022-12-07T05:00:28;23.08;;;10.10;;
54454;SDS011;40364;52.270;10.546;2022-12-07T05:02:55;21.52;;;11.15;;
54454;SDS011;40364;52.270;10.546;2022-12-07T05:05:22;19.10;;;9.13;;
54454;SDS011;40364;52.270;10.546;2022-12-07T05:07:49;26.90;;;10.82;;
54454;SDS011;40364;52.270;10.546;2022-12-07T05:10:18;24.95;;;10.15;;
54454;SDS011;40364;52.270;10.546;2022-12-07T05:12:45;23.85;;;10.48;;
54454;SDS011;40364;52.270;10.546;2022-12-07T05:15:12;16.60;;;9.05;;
54454;SDS011;40364;52.270;10.546;2022-12-07T05:17:40;21.05;;;8.60;;
54454;SDS011;40364;52.270;10.546;2022-12-07T05:20:07;22.20;;;9.77;;
54454;SDS011;40364;52.270;10.546;2022-12-07T05:22:35;22.15;;;10.15;;
54454;SDS011;40364;52.270;10.546;2022-12-07T05:25:02;20.52;;;9.68;;
54454;SDS011;40364;52.270;10.546;2022-12-07T05:27:31;21.30;;;9.68;;
54454;SDS011;40364;52.270;10.546;2022-12-07T05:29:57;24.02;;;10.85;;
54454;SDS011;40364;52.270;10.546;2022-12-07T05:32:24;20.48;;;9.20;;
54454;SDS011;40364;52.270;10.546;2022-12-07T05:34:51;22.23;;;8.77;;
54454;SDS011;40364;52.270;10.546;2022-12-07T05:37:19;21.60;;;9.98;;
54454;SDS011;40364;52.270;10.546;2022-12-07T05:39:46;24.13;;;10.15;;
54454;SDS011;40364;52.270;10.546;2022-12-07T05:42:13;21.05;;;8.65;;
54454;SDS011;40364;52.270;10.546;2022-12-07T05:44:41;25.02;;;9.18;;
54454;SDS011;40364;52.270;10.546;2022-12-07T05:47:10;24.58;;;9.85;;
54454;SDS011;40364;52.270;10.546;2022-12-07T05:49:37;19.85;;;8.82;;
54454;SDS011;40364;52.270;10.546;2022-12-07T05:52:04;18.30;;;8.90;;
54454;SDS011;40364;52.270;10.546;2022-12-07T05:54:31;23.52;;;8.77;;
54454;SDS011;40364;52.270;10.546;2022-12-07T05:56:58;24.33;;;9.93;;
54454;SDS011;40364;52.270;10.546;2022-12-07T05:59:25;18.20;;;8.35;;
54454;SDS011;40364;52.270;10.546;2022-12-07T06:01:54;22.88;;;8.77;;
54454;SDS011;40364;52.270;10.546;2022-12-07T06:04:22;20.00;;;8.13;;
54454;SDS011;40364;52.270;10.546;2022-12-07T06:06:51;20.23;;;7.93;;
54454;SDS011;40364;52.270;10.546;2022-12-07T06:09:17;24.92;;;9.85;;
54454;SDS011;40364;52.270;10.546;2022-12-07T06:11:44;18.23;;;8.18;;
54454;SDS011;40364;52.270;10.546;2022-12-07T06:14:29;15.00;;;8.07;;
54454;SDS011;40364;52.270;10.546;2022-12-07T06:16:57;19.08;;;9.77;;
54454;SDS011;40364;52.270;10.546;2022-12-07T06:19:25;18.65;;;7.85;;
54454;SDS011;40364;52.270;10.546;2022-12-07T06:21:52;14.85;;;7.07;;
54454;SDS011;40364;52.270;10.546;2022-12-07T06:24:20;16.85;;;6.78;;
54454;SDS011;40364;52.270;10.546;2022-12-07T06:26:47;9.82;;;4.57;;
54454;SDS011;40364;52.270;10.546;2022-12-07T06:29:14;8.20;;;4.13;;
54454;SDS011;40364;52.270;10.546;2022-12-07T06:31:42;4.72;;;2.35;;
54454;SDS011;40364;52.270;10.546;2022-12-07T06:34:21;5.20;;;2.08;;
54454;SDS011;40364;52.270;10.546;2022-12-07T06:36:49;5.78;;;2.40;;
54454;SDS011;40364;52.270;10.546;2022-12-07T06:39:18;4.70;;;2.00;;
54454;SDS011;40364;52.270;10.546;2022-12-07T06:41:46;5.43;;;2.95;;
54454;SDS011;40364;52.270;10.546;2022-12-07T06:44:13;8.68;;;2.70;;
54454;SDS011;40364;52.270;10.546;2022-12-07T06:46:39;6.60;;;3.50;;
54454;SDS011;40364;52.270;10.546;2022-12-07T06:49:06;7.43;;;3.85;;
54454;SDS011;40364;52.270;10.546;2022-12-07T06:51:34;13.23;;;4.80;;
54454;SDS011;40364;52.270;10.546;2022-12-07T06:54:06;10.88;;;5.28;;
54454;SDS011;40364;52.270;10.546;2022-12-07T06:56:35;14.65;;;6.13;;
54454;SDS011;40364;52.270;10.546;2022-12-07T06:59:02;16.20;;;6.68;;
54454;SDS011;40364;52.270;10.546;2022-12-07T07:01:30;16.40;;;6.65;;
54454;SDS011;40364;52.270;10.546;2022-12-07T07:03:57;15.90;;;7.07;;
54454;SDS011;40364;52.270;10.546;2022-12-07T07:06:23;20.45;;;7.18;;
54454;SDS011;40364;52.270;10.546;2022-12-07T07:08:52;19.15;;;7.68;;
54454;SDS011;40364;52.270;10.546;2022-12-07T07:11:19;19.70;;;8.23;;
54454;SDS011;40364;52.270;10.546;2022-12-07T07:13:45;17.20;;;8.38;;
54454;SDS011;40364;52.270;10.546;2022-12-07T07:16:13;24.02;;;10.00;;
54454;SDS011;40364;52.270;10.546;2022-12-07T07:18:39;21.70;;;9.07;;
54454;SDS011;40364;52.270;10.546;2022-12-07T07:21:06;17.58;;;8.40;;
54454;SDS011;40364;52.270;10.546;2022-12-07T07:23:35;29.33;;;9.43;;
54454;SDS011;40364;52.270;10.546;2022-12-07T07:26:04;31.77;;;10.90;;
54454;SDS011;40364;52.270;10.546;2022-12-07T07:28:31;28.27;;;10.27;;
54454;SDS011;40364;52.270;10.546;2022-12-07T07:30:57;28.98;;;10.82;;
54454;SDS011;40364;52.270;10.546;2022-12-07T07:33:24;24.27;;;10.77;;
54454;SDS011;40364;52.270;10.546;2022-12-07T07:35:51;35.13;;;13.20;;
54454;SDS011;40364;52.270;10.546;2022-12-07T07:38:17;28.73;;;11.40;;
54454;SDS011;40364;52.270;10.546;2022-12-07T07:40:44;26.77;;;10.32;;
54454;SDS011;40364;52.270;10.546;2022-12-07T07:43:12;33.10;;;11.80;;
54454;SDS011;40364;52.270;10.546;2022-12-07T07:45:39;32.03;;;11.85;;
54454;SDS011;40364;52.270;10.546;2022-12-07T07:48:06;28.80;;;10.70;;
54454;SDS011;40364;52.270;10.546;2022-12-07T07:50:33;24.80;;;10.75;;
54454;SDS011;40364;52.270;10.546;2022-12-07T07:53:00;30.80;;;12.30;;
54454;SDS011;40364;52.270;10.546;2022-12-07T07:55:26;33.47;;;11.48;;
54454;SDS011;40364;52.270;10.546;2022-12-07T07:57:53;29.13;;;10.55;;
54454;SDS011;40364;52.270;10.546;2022-12-07T08:00:22;23.00;;;9.73;;
54454;SDS011;40364;52.270;10.546;2022-12-07T08:02:49;24.92;;;10.63;;
54454;SDS011;40364;52.270;10.546;2022-12-07T08:05:16;29.38;;;10.68;;
54454;SDS011;40364;52.270;10.546;2022-12-07T08:07:43;24.88;;;10.52;;
54454;SDS011;40364;52.270;10.546;2022-12-07T08:10:11;25.55;;;11.50;;
54454;SDS011;40364;52.270;10.546;2022-12-07T08:12:40;22.95;;;9.75;;
54454;SDS011;40364;52.270;10.546;2022-12-07T08:15:24;20.23;;;8.85;;
54454;SDS011;40364;52.270;10.546;2022-12-07T08:17:52;22.50;;;9.50;;
54454;SDS011;40364;52.270;10.546;2022-12-07T08:20:19;20.83;;;8.63;;
54454;SDS011;40364;52.270;10.546;2022-12-07T08:22:45;20.63;;;8.95;;
54454;SDS011;40364;52.270;10.546;2022-12-07T08:25:12;21.27;;;8.18;;
54454;SDS011;40364;52.270;10.546;2022-12-07T08:27:39;20.40;;;8.20;;
54454;SDS011;40364;52.270;10.546;2022-12-07T08:30:06;17.20;;;7.65;;
54454;SDS011;40364;52.270;10.546;2022-12-07T08:32:37;22.80;;;8.85;;
54454;SDS011;40364;52.270;10.546;2022-12-07T08:35:07;19.05;;;8.27;;
54454;SDS011;40364;52.270;10.546;2022-12-07T08:37:34;17.60;;;8.40;;
54454;SDS011;40364;52.270;10.546;2022-12-07T08:40:01;21.58;;;9.10;;
54454;SDS011;40364;52.270;10.546;2022-12-07T08:42:28;21.63;;;9.38;;
54454;SDS011;40364;52.270;10.546;2022-12-07T08:45:02;18.83;;;9.20;;
54454;SDS011;40364;52.270;10.546;2022-12-07T08:47:30;23.88;;;9.40;;
54454;SDS011;40364;52.270;10.546;2022-12-07T08:49:58;21.35;;;9.98;;
54454;SDS011;40364;52.270;10.546;2022-12-07T08:52:28;23.88;;;8.23;;
54454;SDS011;40364;52.270;10.546;2022-12-07T08:54:56;22.10;;;8.32;;
54454;SDS011;40364;52.270;10.546;2022-12-07T08:57:23;20.05;;;8.57;;
54454;SDS011;40364;52.270;10.546;2022-12-07T08:59:50;20.17;;;8.23;;
54454;SDS011;40364;52.270;10.546;2022-12-07T09:02:17;19.92;;;7.72;;
54454;SDS011;40364;52.270;10.546;2022-12-07T09:04:43;18.63;;;8.25;;
54454;SDS011;40364;52.270;10.546;2022-12-07T09:07:12;21.38;;;8.30;;
54454;SDS011;40364;52.270;10.546;2022-12-07T09:09:38;20.30;;;8.13;;
54454;SDS011;40364;52.270;10.546;2022-12-07T09:12:05;18.88;;;8.02;;
54454;SDS011;40364;52.270;10.546;2022-12-07T09:14:32;14.45;;;7.70;;
54454;SDS011;40364;52.270;10.546;2022-12-07T09:17:04;19.50;;;9.07;;
54454;SDS011;40364;52.270;10.546;2022-12-07T09:19:32;15.57;;;7.43;;
54454;SDS011;40364;52.270;10.546;2022-12-07T09:21:58;22.90;;;8.63;;
54454;SDS011;40364;52.270;10.546;2022-12-07T09:24:27;13.77;;;7.40;;
54454;SDS011;40364;52.270;10.546;2022-12-07T09:26:54;18.70;;;8.85;;
54454;SDS011;40364;52.270;10.546;2022-12-07T09:29:20;15.07;;;7.47;;
54454;SDS011;40364;52.270;10.546;2022-12-07T09:31:47;21.48;;;8.65;;
54454;SDS011;40364;52.270;10.546;2022-12-07T09:34:14;20.88;;;8.40;;
54454;SDS011;40364;52.270;10.546;2022-12-07T09:36:40;18.70;;;9.32;;
54454;SDS011;40364;52.270;10.546;2022-12-07T09:39:08;18.70;;;8.77;;
54454;SDS011;40364;52.270;10.546;2022-12-07T09:41:38;17.75;;;8.82;;
54454;SDS011;40364;52.270;10.546;2022-12-07T09:44:10;19.77;;;8.85;;
54454;SDS011;40364;52.270;10.546;2022-12-07T09:46:40;19.38;;;8.60;;
54454;SDS011;40364;52.270;10.546;2022-12-07T09:49:09;18.17;;;8.68;;
54454;SDS011;40364;52.270;10.546;2022-12-07T09:51:39;19.85;;;8.57;;
54454;SDS011;40364;52.270;10.546;2022-12-07T09:54:06;17.17;;;8.90;;
54454;SDS011;40364;52.270;10.546;2022-12-07T09:56:35;15.65;;;7.20;;
54454;SDS011;40364;52.270;10.546;2022-12-07T09:59:03;16.10;;;7.43;;
54454;SDS011;40364;52.270;10.546;2022-12-07T10:01:30;15.07;;;7.35;;
54454;SDS011;40364;52.270;10.546;2022-12-07T10:04:00;18.23;;;6.15;;
54454;SDS011;40364;52.270;10.546;2022-12-07T10:06:35;15.02;;;5.78;;
54454;SDS011;40364;52.270;10.546;2022-12-07T10:09:07;12.75;;;5.82;;
54454;SDS011;40364;52.270;10.546;2022-12-07T10:14:29;14.75;;;6.05;;
54454;SDS011;40364;52.270;10.546;2022-12-07T10:16:57;13.07;;;5.80;;
54454;SDS011;40364;52.270;10.546;2022-12-07T10:19:25;12.35;;;7.30;;
54454;SDS011;40364;52.270;10.546;2022-12-07T10:22:00;13.73;;;6.35;;
54454;SDS011;40364;52.270;10.546;2022-12-07T10:24:29;22.10;;;7.15;;
54454;SDS011;40364;52.270;10.546;2022-12-07T10:26:56;12.68;;;6.30;;
54454;SDS011;40364;52.270;10.546;2022-12-07T10:29:24;13.98;;;5.90;;
54454;SDS011;40364;52.270;10.546;2022-12-07T10:31:57;17.52;;;6.35;;
54454;SDS011;40364;52.270;10.546;2022-12-07T10:34:26;18.55;;;5.72;;
54454;SDS011;40364;52.270;10.546;2022-12-07T10:37:06;14.75;;;5.70;;
54454;SDS011;40364;52.270;10.546;2022-12-07T10:39:44;8.15;;;3.83;;
54454;SDS011;40364;52.270;10.546;2022-12-07T10:42:16;9.60;;;4.07;;
54454;SDS011;40364;52.270;10.546;2022-12-07T10:44:46;6.30;;;3.83;;
54454;SDS011;40364;52.270;10.546;2022-12-07T10:47:17;11.68;;;4.22;;
54454;SDS011;40364;52.270;10.546;2022-12-07T10:53:03;8.95;;;4.60;;
54454;SDS011;40364;52.270;10.546;2022-12-07T10:56:01;12.77;;;5.25;;
54454;SDS011;40364;52.270;10.546;2022-12-07T10:58:50;15.60;;;5.82;;
54454;SDS011;40364;52.270;10.546;2022-12-07T11:01:29;12.90;;;5.50;;
54454;SDS011;40364;52.270;10.546;2022-12-07T11:04:03;9.52;;;5.57;;
54454;SDS011;40364;52.270;10.546;2022-12-07T11:06:43;13.75;;;5.53;;
54454;SDS011;40364;52.270;10.546;2022-12-07T11:09:25;8.82;;;4.55;;
54454;SDS011;40364;52.270;10.546;2022-12-07T11:12:05;9.07;;;4.63;;
54454;SDS011;40364;52.270;10.546;2022-12-07T11:14:41;7.82;;;4.15;;
54454;SDS011;40364;52.270;10.546;2022-12-07T11:17:20;8.30;;;3.88;;
54454;SDS011;40364;52.270;10.546;2022-12-07T11:19:59;8.38;;;3.72;;
54454;SDS011;40364;52.270;10.546;2022-12-07T11:22:34;13.23;;;3.92;;
54454;SDS011;40364;52.270;10.546;2022-12-07T11:25:13;7.30;;;3.25;;
54454;SDS011;40364;52.270;10.546;2022-12-07T11:27:47;6.18;;;3.53;;
54454;SDS011;40364;52.270;10.546;2022-12-07T11:30:26;5.10;;;2.70;;
54454;SDS011;40364;52.270;10.546;2022-12-07T11:33:07;7.88;;;3.25;;
54454;SDS011;40364;52.270;10.546;2022-12-07T11:35:46;6.60;;;3.10;;
54454;SDS011;40364;52.270;10.546;2022-12-07T11:38:26;8.70;;;2.78;;
54454;SDS011;40364;52.270;10.546;2022-12-07T11:41:03;7.13;;;3.17;;
54454;SDS011;40364;52.270;10.546;2022-12-07T11:43:41;9.83;;;3.13;;
54454;SDS011;40364;52.270;10.546;2022-12-07T11:46:16;7.72;;;3.30;;
54454;SDS011;40364;52.270;10.546;2022-12-07T11:48:46;5.32;;;2.17;;
54454;SDS011;40364;52.270;10.546;2022-12-07T11:51:17;9.70;;;2.15;;
54454;SDS011;40364;52.270;10.546;2022-12-07T11:53:48;5.22;;;2.00;;
54454;SDS011;40364;52.270;10.546;2022-12-07T11:56:19;4.90;;;1.58;;
54454;SDS011;40364;52.270;10.546;2022-12-07T11:58:49;6.28;;;1.50;;
54454;SDS011;40364;52.270;10.546;2022-12-07T12:01:22;8.23;;;1.77;;
54454;SDS011;40364;52.270;10.546;2022-12-07T12:03:58;2.65;;;1.55;;
54454;SDS011;40364;52.270;10.546;2022-12-07T12:06:31;8.73;;;2.63;;
54454;SDS011;40364;52.270;10.546;2022-12-07T12:09:01;5.15;;;2.72;;
54454;SDS011;40364;52.270;10.546;2022-12-07T12:11:37;7.30;;;2.95;;
54454;SDS011;40364;52.270;10.546;2022-12-07T12:20:17;7.10;;;2.08;;
54454;SDS011;40364;52.270;10.546;2022-12-07T12:22:50;8.35;;;2.65;;
54454;SDS011;40364;52.270;10.546;2022-12-07T12:25:21;3.35;;;2.00;;
54454;SDS011;40364;52.270;10.546;2022-12-07T12:27:51;7.50;;;2.47;;
54454;SDS011;40364;52.270;10.546;2022-12-07T12:30:25;7.63;;;2.88;;
54454;SDS011;40364;52.270;10.546;2022-12-07T12:33:01;5.15;;;2.58;;
54454;SDS011;40364;52.270;10.546;2022-12-07T12:35:32;7.38;;;2.53;;
54454;SDS011;40364;52.270;10.546;2022-12-07T12:41:06;3.80;;;2.00;;
54454;SDS011;40364;52.270;10.546;2022-12-07T12:43:53;13.73;;;2.38;;
54454;SDS011;40364;52.270;10.546;2022-12-07T12:55:20;8.07;;;2.53;;
54454;SDS011;40364;52.270;10.546;2022-12-07T13:04:26;7.22;;;2.05;;
54454;SDS011;40364;52.270;10.546;2022-12-07T13:07:12;5.13;;;1.85;;
54454;SDS011;40364;52.270;10.546;2022-12-07T13:10:01;3.22;;;1.45;;
54454;SDS011;40364;52.270;10.546;2022-12-07T13:12:28;6.50;;;1.92;;
54454;SDS011;40364;52.270;10.546;2022-12-07T13:14:56;7.15;;;1.58;;
54454;SDS011;40364;52.270;10.546;2022-12-07T13:20:48;3.30;;;1.17;;
54454;SDS011;40364;52.270;10.546;2022-12-07T13:23:20;2.67;;;1.50;;
54454;SDS011;40364;52.270;10.546;2022-12-07T13:28:43;3.60;;;1.67;;
54454;SDS011;40364;52.270;10.546;2022-12-07T13:31:14;3.58;;;1.80;;
54454;SDS011;40364;52.270;10.546;2022-12-07T13:33:53;3.25;;;1.90;;
54454;SDS011;40364;52.270;10.546;2022-12-07T13:36:21;6.47;;;2.03;;
54454;SDS011;40364;52.270;10.546;2022-12-07T13:39:00;4.57;;;2.25;;
54454;SDS011;40364;52.270;10.546;2022-12-07T13:41:40;7.22;;;2.58;;
54454;SDS011;40364;52.270;10.546;2022-12-07T13:44:09;8.48;;;2.60;;
54454;SDS011;40364;52.270;10.546;2022-12-07T13:46:43;3.75;;;2.17;;
54454;SDS011;40364;52.270;10.546;2022-12-07T13:49:17;6.18;;;2.22;;
54454;SDS011;40364;52.270;10.546;2022-12-07T13:51:46;4.18;;;2.15;;
54454;SDS011;40364;52.270;10.546;2022-12-07T13:54:14;4.65;;;1.70;;
54454;SDS011;40364;52.270;10.546;2022-12-07T13:56:42;6.32;;;1.88;;
54454;SDS011;40364;52.270;10.546;2022-12-07T13:59:13;7.57;;;1.60;;
54454;SDS011;40364;52.270;10.546;2022-12-07T14:01:42;3.72;;;1.33;;
54454;SDS011;40364;52.270;10.546;2022-12-07T14:04:18;6.97;;;1.77;;
54454;SDS011;40364;52.270;10.546;2022-12-07T14:06:55;6.15;;;1.50;;
54454;SDS011;40364;52.270;10.546;2022-12-07T14:09:22;6.15;;;1.52;;
54454;SDS011;40364;52.270;10.546;2022-12-07T14:11:52;7.10;;;2.15;;
54454;SDS011;40364;52.270;10.546;2022-12-07T14:14:21;8.02;;;2.42;;
54454;SDS011;40364;52.270;10.546;2022-12-07T14:16:55;4.75;;;1.80;;
54454;SDS011;40364;52.270;10.546;2022-12-07T14:19:40;8.13;;;2.33;;
54454;SDS011;40364;52.270;10.546;2022-12-07T14:22:18;6.18;;;1.73;;
54454;SDS011;40364;52.270;10.546;2022-12-07T14:24:48;5.72;;;2.00;;
54454;SDS011;40364;52.270;10.546;2022-12-07T14:27:19;7.43;;;1.95;;
54454;SDS011;40364;52.270;10.546;2022-12-07T14:29:50;10.30;;;1.92;;
54454;SDS011;40364;52.270;10.546;2022-12-07T14:32:22;7.25;;;2.05;;
54454;SDS011;40364;52.270;10.546;2022-12-07T14:34:57;7.65;;;2.28;;
54454;SDS011;40364;52.270;10.546;2022-12-07T14:37:25;4.90;;;2.53;;
54454;SDS011;40364;52.270;10.546;2022-12-07T14:39:53;8.55;;;2.72;;
54454;SDS011;40364;52.270;10.546;2022-12-07T14:42:21;10.48;;;2.30;;
54454;SDS011;40364;52.270;10.546;2022-12-07T14:44:52;7.60;;;2.50;;
54454;SDS011;40364;52.270;10.546;2022-12-07T14:47:19;7.07;;;2.60;;
54454;SDS011;40364;52.270;10.546;2022-12-07T14:49:45;6.10;;;2.35;;
54454;SDS011;40364;52.270;10.546;2022-12-07T14:52:13;8.23;;;2.80;;
54454;SDS011;40364;52.270;10.546;2022-12-07T14:54:43;6.75;;;2.63;;
54454;SDS011;40364;52.270;10.546;2022-12-07T14:57:10;7.07;;;2.22;;
54454;SDS011;40364;52.270;10.546;2022-12-07T14:59:38;3.42;;;1.83;;
54454;SDS011;40364;52.270;10.546;2022-12-07T15:02:05;9.02;;;2.30;;
54454;SDS011;40364;52.270;10.546;2022-12-07T15:04:33;5.03;;;2.10;;
54454;SDS011;40364;52.270;10.546;2022-12-07T15:07:00;9.77;;;2.03;;
54454;SDS011;40364;52.270;10.546;2022-12-07T15:09:29;5.03;;;1.70;;
54454;SDS011;40364;52.270;10.546;2022-12-07T15:11:56;6.95;;;1.98;;
54454;SDS011;40364;52.270;10.546;2022-12-07T15:14:22;3.42;;;1.90;;
54454;SDS011;40364;52.270;10.546;2022-12-07T15:16:50;4.03;;;1.48;;
54454;SDS011;40364;52.270;10.546;2022-12-07T15:19:18;8.10;;;2.58;;
54454;SDS011;40364;52.270;10.546;2022-12-07T15:21:48;6.70;;;2.45;;
54454;SDS011;40364;52.270;10.546;2022-12-07T15:24:15;7.60;;;2.00;;
54454;SDS011;40364;52.270;10.546;2022-12-07T15:26:41;5.10;;;2.22;;